sensor_id;sensor_type;location;lat;lon;timestamp;pressure;altitude;pressure_sealevel;temperature;humidity
58534;BME280;44109;52.398;7.024;2023-01-27T00:02:14;102264.44;;;4.91;100.00
58534;BME280;44109;52.398;7.024;2023-01-27T00:04:42;102274.88;;;5.31;100.00
58534;BME280;44109;52.398;7.024;2023-01-27T00:07:11;102275.94;;;5.49;100.00
58534;BME280;44109;52.398;7.024;2023-01-27T00:09:38;102271.88;;;5.47;100.00
58534;BME280;44109;52.398;7.024;2023-01-27T00:12:12;102261.81;;;4.99;100.00
58534;BME280;44109;52.398;7.024;2023-01-27T00:15:03;102280.06;;;5.14;100.00
58534;BME280;44109;52.398;7.024;2023-01-27T00:17:33;102286.00;;;5.40;100.00
58534;BME280;44109;52.398;7.024;2023-01-27T00:20:01;102284.00;;;5.08;100.00
58534;BME280;44109;52.398;7.024;2023-01-27T00:22:31;102287.03;;;5.44;100.00
58534;BME280;44109;52.398;7.024;2023-01-27T00:25:18;102287.41;;;5.56;100.00
58534;BME280;44109;52.398;7.024;2023-01-27T00:27:46;102282.34;;;5.26;100.00
58534;BME280;44109;52.398;7.024;2023-01-27T00:30:14;102287.25;;;5.48;100.00
58534;BME280;44109;52.398;7.024;2023-01-27T00:32:41;102295.28;;;5.63;100.00
58534;BME280;44109;52.398;7.024;2023-01-27T00:35:27;102289.13;;;5.52;100.00
58534;BME280;44109;52.398;7.024;2023-01-27T00:37:56;102284.75;;;5.51;100.00
58534;BME280;44109;52.398;7.024;2023-01-27T00:40:24;102285.78;;;5.18;100.00
58534;BME280;44109;52.398;7.024;2023-01-27T00:42:51;102286.34;;;4.77;100.00
58534;BME280;44109;52.398;7.024;2023-01-27T00:45:19;102284.19;;;4.93;100.00
58534;BME280;44109;52.398;7.024;2023-01-27T00:48:04;102279.25;;;5.32;100.00
58534;BME280;44109;52.398;7.024;2023-01-27T00:50:32;102288.91;;;5.49;100.00
58534;BME280;44109;52.398;7.024;2023-01-27T00:53:01;102292.50;;;5.63;100.00
58534;BME280;44109;52.398;7.024;2023-01-27T00:55:30;102283.16;;;5.26;100.00
58534;BME280;44109;52.398;7.024;2023-01-27T00:57:58;102276.13;;;5.20;100.00
58534;BME280;44109;52.398;7.024;2023-01-27T01:00:25;102272.13;;;5.31;100.00
58534;BME280;44109;52.398;7.024;2023-01-27T01:02:53;102288.91;;;5.30;100.00
58534;BME280;44109;52.398;7.024;2023-01-27T01:05:21;102275.84;;;5.41;100.00
58534;BME280;44109;52.398;7.024;2023-01-27T01:07:48;102297.75;;;5.08;100.00
58534;BME280;44109;52.398;7.024;2023-01-27T01:10:17;102299.06;;;4.92;100.00
58534;BME280;44109;52.398;7.024;2023-01-27T01:12:45;102299.16;;;5.24;100.00
58534;BME280;44109;52.398;7.024;2023-01-27T01:15:13;102296.66;;;5.28;100.00
58534;BME280;44109;52.398;7.024;2023-01-27T01:17:41;102306.97;;;5.55;100.00
58534;BME280;44109;52.398;7.024;2023-01-27T01:20:10;102296.25;;;5.34;100.00
58534;BME280;44109;52.398;7.024;2023-01-27T01:22:38;102290.47;;;5.17;100.00
58534;BME280;44109;52.398;7.024;2023-01-27T01:25:06;102310.44;;;5.04;100.00
58534;BME280;44109;52.398;7.024;2023-01-27T01:27:36;102277.63;;;4.46;100.00
58534;BME280;44109;52.398;7.024;2023-01-27T01:30:04;102311.47;;;4.89;100.00
58534;BME280;44109;52.398;7.024;2023-01-27T01:32:33;102310.00;;;4.97;100.00
58534;BME280;44109;52.398;7.024;2023-01-27T01:35:00;102312.03;;;5.10;100.00
58534;BME280;44109;52.398;7.024;2023-01-27T01:37:28;102316.41;;;4.68;100.00
58534;BME280;44109;52.398;7.024;2023-01-27T01:39:56;102319.31;;;5.01;100.00
58534;BME280;44109;52.398;7.024;2023-01-27T01:42:23;102319.59;;;4.75;100.00
58534;BME280;44109;52.398;7.024;2023-01-27T01:48:12;102319.78;;;4.60;100.00
58534;BME280;44109;52.398;7.024;2023-01-27T01:50:47;102316.41;;;4.68;100.00
58534;BME280;44109;52.398;7.024;2023-01-27T01:53:22;102324.34;;;4.46;100.00
58534;BME280;44109;52.398;7.024;2023-01-27T01:55:57;102306.19;;;4.45;100.00
58534;BME280;44109;52.398;7.024;2023-01-27T01:58:30;102324.72;;;5.06;100.00
58534;BME280;44109;52.398;7.024;2023-01-27T02:01:02;102320.03;;;4.64;100.00
58534;BME280;44109;52.398;7.024;2023-01-27T02:03:32;102321.06;;;4.92;100.00
58534;BME280;44109;52.398;7.024;2023-01-27T02:06:05;102326.19;;;5.22;100.00
58534;BME280;44109;52.398;7.024;2023-01-27T02:08:37;102315.38;;;5.26;100.00
58534;BME280;44109;52.398;7.024;2023-01-27T02:11:07;102326.91;;;5.09;100.00
58534;BME280;44109;52.398;7.024;2023-01-27T02:13:36;102326.75;;;5.19;100.00
58534;BME280;44109;52.398;7.024;2023-01-27T02:16:07;102316.66;;;5.33;100.00
58534;BME280;44109;52.398;7.024;2023-01-27T02:18:37;102309.25;;;4.91;100.00
58534;BME280;44109;52.398;7.024;2023-01-27T02:21:06;102320.38;;;5.43;100.00
58534;BME280;44109;52.398;7.024;2023-01-27T02:23:57;102308.53;;;5.42;100.00
58534;BME280;44109;52.398;7.024;2023-01-27T02:26:34;102293.44;;;5.40;100.00
58534;BME280;44109;52.398;7.024;2023-01-27T02:29:06;102323.78;;;5.34;100.00
58534;BME280;44109;52.398;7.024;2023-01-27T02:31:35;102293.91;;;5.09;100.00
58534;BME280;44109;52.398;7.024;2023-01-27T02:34:05;102336.41;;;5.17;100.00
58534;BME280;44109;52.398;7.024;2023-01-27T02:36:39;102340.22;;;5.58;100.00
58534;BME280;44109;52.398;7.024;2023-01-27T02:39:12;102342.03;;;5.68;100.00
58534;BME280;44109;52.398;7.024;2023-01-27T02:41:45;102318.50;;;5.57;100.00
58534;BME280;44109;52.398;7.024;2023-01-27T02:44:17;102329.81;;;5.74;100.00
58534;BME280;44109;52.398;7.024;2023-01-27T02:46:45;102329.88;;;5.69;100.00
58534;BME280;44109;52.398;7.024;2023-01-27T02:49:13;102327.50;;;5.81;100.00
58534;BME280;44109;52.398;7.024;2023-01-27T02:51:41;102335.38;;;5.69;100.00
58534;BME280;44109;52.398;7.024;2023-01-27T02:54:08;102326.84;;;5.33;100.00
58534;BME280;44109;52.398;7.024;2023-01-27T02:56:36;102337.34;;;5.50;100.00
58534;BME280;44109;52.398;7.024;2023-01-27T02:59:05;102332.84;;;5.54;100.00
58534;BME280;44109;52.398;7.024;2023-01-27T03:01:33;102314.06;;;5.42;100.00
58534;BME280;44109;52.398;7.024;2023-01-27T03:04:00;102341.00;;;5.45;100.00
58534;BME280;44109;52.398;7.024;2023-01-27T03:06:28;102339.72;;;5.56;100.00
58534;BME280;44109;52.398;7.024;2023-01-27T03:08:56;102324.09;;;5.52;100.00
58534;BME280;44109;52.398;7.024;2023-01-27T03:11:23;102323.84;;;5.48;100.00
58534;BME280;44109;52.398;7.024;2023-01-27T03:14:07;102342.63;;;5.46;100.00
58534;BME280;44109;52.398;7.024;2023-01-27T03:16:35;102340.75;;;5.60;100.00
58534;BME280;44109;52.398;7.024;2023-01-27T03:19:20;102341.94;;;5.73;100.00
58534;BME280;44109;52.398;7.024;2023-01-27T03:21:48;102344.59;;;5.78;100.00
58534;BME280;44109;52.398;7.024;2023-01-27T03:24:17;102347.66;;;5.39;100.00
58534;BME280;44109;52.398;7.024;2023-01-27T03:26:45;102341.25;;;5.44;100.00
58534;BME280;44109;52.398;7.024;2023-01-27T03:29:14;102331.81;;;5.31;100.00
58534;BME280;44109;52.398;7.024;2023-01-27T03:32:00;102349.59;;;5.20;100.00
58534;BME280;44109;52.398;7.024;2023-01-27T03:34:27;102346.25;;;5.42;100.00
58534;BME280;44109;52.398;7.024;2023-01-27T03:36:55;102351.78;;;5.18;100.00
58534;BME280;44109;52.398;7.024;2023-01-27T03:39:40;102351.13;;;5.07;100.00
58534;BME280;44109;52.398;7.024;2023-01-27T03:42:25;102317.84;;;4.84;100.00
58534;BME280;44109;52.398;7.024;2023-01-27T03:45:12;102347.72;;;5.15;100.00
58534;BME280;44109;52.398;7.024;2023-01-27T03:47:57;102351.94;;;5.07;100.00
58534;BME280;44109;52.398;7.024;2023-01-27T03:50:24;102358.28;;;4.60;100.00
58534;BME280;44109;52.398;7.024;2023-01-27T03:53:02;102353.06;;;4.82;100.00
58534;BME280;44109;52.398;7.024;2023-01-27T03:55:32;102351.66;;;4.61;100.00
58534;BME280;44109;52.398;7.024;2023-01-27T03:58:02;102352.53;;;4.80;100.00
58534;BME280;44109;52.398;7.024;2023-01-27T04:00:45;102350.66;;;4.76;100.00
58534;BME280;44109;52.398;7.024;2023-01-27T04:03:13;102357.31;;;4.94;100.00
58534;BME280;44109;52.398;7.024;2023-01-27T04:06:01;102352.84;;;4.79;100.00
58534;BME280;44109;52.398;7.024;2023-01-27T04:08:47;102350.53;;;4.62;100.00
58534;BME280;44109;52.398;7.024;2023-01-27T04:11:15;102360.47;;;4.58;100.00
58534;BME280;44109;52.398;7.024;2023-01-27T04:14:00;102362.13;;;4.59;100.00
58534;BME280;44109;52.398;7.024;2023-01-27T04:16:30;102353.34;;;4.57;100.00
58534;BME280;44109;52.398;7.024;2023-01-27T04:18:59;102361.03;;;4.60;100.00
58534;BME280;44109;52.398;7.024;2023-01-27T04:21:27;102361.25;;;4.35;100.00
58534;BME280;44109;52.398;7.024;2023-01-27T04:23:55;102362.19;;;4.25;100.00
58534;BME280;44109;52.398;7.024;2023-01-27T04:26:23;102361.78;;;4.07;100.00
58534;BME280;44109;52.398;7.024;2023-01-27T04:28:51;102363.25;;;4.29;100.00
58534;BME280;44109;52.398;7.024;2023-01-27T04:31:18;102359.66;;;3.99;100.00
58534;BME280;44109;52.398;7.024;2023-01-27T04:33:47;102353.28;;;4.04;100.00
58534;BME280;44109;52.398;7.024;2023-01-27T04:36:15;102372.59;;;4.28;100.00
58534;BME280;44109;52.398;7.024;2023-01-27T04:38:43;102379.19;;;4.27;100.00
58534;BME280;44109;52.398;7.024;2023-01-27T04:41:10;102376.13;;;4.33;100.00
58534;BME280;44109;52.398;7.024;2023-01-27T04:43:38;102377.44;;;4.41;100.00
58534;BME280;44109;52.398;7.024;2023-01-27T04:46:06;102374.47;;;4.32;100.00
58534;BME280;44109;52.398;7.024;2023-01-27T04:48:33;102378.50;;;4.11;100.00
58534;BME280;44109;52.398;7.024;2023-01-27T04:51:03;102367.00;;;4.09;100.00
58534;BME280;44109;52.398;7.024;2023-01-27T04:53:30;102375.53;;;4.37;100.00
58534;BME280;44109;52.398;7.024;2023-01-27T04:56:00;102354.31;;;4.13;100.00
58534;BME280;44109;52.398;7.024;2023-01-27T04:58:30;102374.34;;;4.19;100.00
58534;BME280;44109;52.398;7.024;2023-01-27T05:00:58;102387.31;;;4.08;100.00
58534;BME280;44109;52.398;7.024;2023-01-27T05:03:25;102358.59;;;3.95;100.00
58534;BME280;44109;52.398;7.024;2023-01-27T05:05:53;102369.59;;;3.95;100.00
58534;BME280;44109;52.398;7.024;2023-01-27T05:08:22;102372.03;;;3.97;100.00
58534;BME280;44109;52.398;7.024;2023-01-27T05:10:50;102378.25;;;4.07;100.00
58534;BME280;44109;52.398;7.024;2023-01-27T05:13:18;102373.09;;;4.01;100.00
58534;BME280;44109;52.398;7.024;2023-01-27T05:15:45;102386.03;;;4.29;100.00
58534;BME280;44109;52.398;7.024;2023-01-27T05:18:13;102377.13;;;4.14;100.00
58534;BME280;44109;52.398;7.024;2023-01-27T05:20:41;102389.75;;;4.15;100.00
58534;BME280;44109;52.398;7.024;2023-01-27T05:23:08;102379.94;;;4.38;100.00
58534;BME280;44109;52.398;7.024;2023-01-27T05:25:55;102372.25;;;4.05;100.00
58534;BME280;44109;52.398;7.024;2023-01-27T05:28:22;102387.91;;;4.05;100.00
58534;BME280;44109;52.398;7.024;2023-01-27T05:30:50;102383.09;;;4.21;100.00
58534;BME280;44109;52.398;7.024;2023-01-27T05:33:17;102383.50;;;4.04;100.00
58534;BME280;44109;52.398;7.024;2023-01-27T05:35:45;102396.13;;;4.05;100.00
58534;BME280;44109;52.398;7.024;2023-01-27T05:38:13;102396.31;;;4.19;100.00
58534;BME280;44109;52.398;7.024;2023-01-27T05:40:40;102397.16;;;4.14;100.00
58534;BME280;44109;52.398;7.024;2023-01-27T05:43:09;102403.25;;;4.06;100.00
58534;BME280;44109;52.398;7.024;2023-01-27T05:45:37;102405.31;;;4.24;100.00
58534;BME280;44109;52.398;7.024;2023-01-27T05:48:05;102401.25;;;4.17;100.00
58534;BME280;44109;52.398;7.024;2023-01-27T05:50:32;102415.63;;;4.03;100.00
58534;BME280;44109;52.398;7.024;2023-01-27T05:53:00;102409.97;;;3.90;100.00
58534;BME280;44109;52.398;7.024;2023-01-27T05:55:28;102420.47;;;4.17;100.00
58534;BME280;44109;52.398;7.024;2023-01-27T05:57:55;102419.91;;;4.20;100.00
58534;BME280;44109;52.398;7.024;2023-01-27T06:00:24;102416.09;;;4.16;100.00
58534;BME280;44109;52.398;7.024;2023-01-27T06:02:52;102418.06;;;4.10;100.00
58534;BME280;44109;52.398;7.024;2023-01-27T06:05:20;102415.47;;;4.24;100.00
58534;BME280;44109;52.398;7.024;2023-01-27T06:07:47;102421.34;;;4.12;100.00
58534;BME280;44109;52.398;7.024;2023-01-27T06:10:15;102415.31;;;4.10;100.00
58534;BME280;44109;52.398;7.024;2023-01-27T06:12:43;102420.34;;;3.98;100.00
58534;BME280;44109;52.398;7.024;2023-01-27T06:15:11;102426.13;;;3.96;100.00
58534;BME280;44109;52.398;7.024;2023-01-27T06:17:40;102423.19;;;4.22;100.00
58534;BME280;44109;52.398;7.024;2023-01-27T06:20:09;102418.41;;;3.98;100.00
58534;BME280;44109;52.398;7.024;2023-01-27T06:22:37;102422.28;;;3.97;100.00
58534;BME280;44109;52.398;7.024;2023-01-27T06:25:06;102421.00;;;3.79;100.00
58534;BME280;44109;52.398;7.024;2023-01-27T06:27:34;102417.94;;;3.91;100.00
58534;BME280;44109;52.398;7.024;2023-01-27T06:30:02;102433.06;;;3.84;100.00
58534;BME280;44109;52.398;7.024;2023-01-27T06:32:30;102440.19;;;3.85;100.00
58534;BME280;44109;52.398;7.024;2023-01-27T06:34:59;102426.75;;;3.83;100.00
58534;BME280;44109;52.398;7.024;2023-01-27T06:37:27;102416.97;;;3.67;100.00
58534;BME280;44109;52.398;7.024;2023-01-27T06:39:55;102433.31;;;3.87;100.00
58534;BME280;44109;52.398;7.024;2023-01-27T06:42:23;102438.44;;;3.99;100.00
58534;BME280;44109;52.398;7.024;2023-01-27T06:44:50;102441.19;;;3.99;100.00
58534;BME280;44109;52.398;7.024;2023-01-27T06:47:18;102444.41;;;4.11;100.00
58534;BME280;44109;52.398;7.024;2023-01-27T06:49:46;102436.13;;;4.16;100.00
58534;BME280;44109;52.398;7.024;2023-01-27T06:52:15;102446.56;;;4.19;100.00
58534;BME280;44109;52.398;7.024;2023-01-27T06:54:42;102438.41;;;4.04;100.00
58534;BME280;44109;52.398;7.024;2023-01-27T06:57:10;102428.31;;;4.33;100.00
58534;BME280;44109;52.398;7.024;2023-01-27T06:59:37;102456.56;;;4.39;100.00
58534;BME280;44109;52.398;7.024;2023-01-27T07:02:05;102458.84;;;3.88;100.00
58534;BME280;44109;52.398;7.024;2023-01-27T07:04:33;102467.16;;;4.17;100.00
58534;BME280;44109;52.398;7.024;2023-01-27T07:07:01;102477.44;;;4.01;100.00
58534;BME280;44109;52.398;7.024;2023-01-27T07:09:30;102464.66;;;4.20;100.00
58534;BME280;44109;52.398;7.024;2023-01-27T07:11:57;102478.22;;;4.46;100.00
58534;BME280;44109;52.398;7.024;2023-01-27T07:14:25;102458.75;;;4.03;100.00
58534;BME280;44109;52.398;7.024;2023-01-27T07:16:52;102478.19;;;4.12;100.00
58534;BME280;44109;52.398;7.024;2023-01-27T07:19:20;102485.34;;;4.07;100.00
58534;BME280;44109;52.398;7.024;2023-01-27T07:21:48;102485.91;;;4.10;100.00
58534;BME280;44109;52.398;7.024;2023-01-27T07:24:15;102485.09;;;4.09;100.00
58534;BME280;44109;52.398;7.024;2023-01-27T07:26:45;102487.88;;;4.38;100.00
58534;BME280;44109;52.398;7.024;2023-01-27T07:29:13;102460.75;;;4.31;100.00
58534;BME280;44109;52.398;7.024;2023-01-27T07:31:41;102487.72;;;4.58;100.00
58534;BME280;44109;52.398;7.024;2023-01-27T07:34:09;102474.97;;;4.39;100.00
58534;BME280;44109;52.398;7.024;2023-01-27T07:36:37;102492.63;;;4.62;100.00
58534;BME280;44109;52.398;7.024;2023-01-27T07:39:05;102494.63;;;4.56;100.00
58534;BME280;44109;52.398;7.024;2023-01-27T07:41:33;102494.94;;;4.49;100.00
58534;BME280;44109;52.398;7.024;2023-01-27T07:44:02;102491.50;;;4.33;100.00
58534;BME280;44109;52.398;7.024;2023-01-27T07:46:30;102506.03;;;4.34;100.00
58534;BME280;44109;52.398;7.024;2023-01-27T07:48:57;102509.53;;;4.45;100.00
58534;BME280;44109;52.398;7.024;2023-01-27T07:51:25;102507.56;;;4.11;100.00
58534;BME280;44109;52.398;7.024;2023-01-27T07:53:52;102515.28;;;4.04;100.00
58534;BME280;44109;52.398;7.024;2023-01-27T07:56:20;102528.44;;;4.12;100.00
58534;BME280;44109;52.398;7.024;2023-01-27T07:58:48;102523.72;;;4.57;100.00
58534;BME280;44109;52.398;7.024;2023-01-27T08:01:17;102539.63;;;4.26;100.00
58534;BME280;44109;52.398;7.024;2023-01-27T08:03:44;102529.84;;;4.10;100.00
58534;BME280;44109;52.398;7.024;2023-01-27T08:06:12;102534.91;;;4.37;100.00
58534;BME280;44109;52.398;7.024;2023-01-27T08:08:40;102535.63;;;4.47;100.00
58534;BME280;44109;52.398;7.024;2023-01-27T08:11:11;102524.38;;;4.44;100.00
58534;BME280;44109;52.398;7.024;2023-01-27T08:13:40;102529.91;;;4.39;100.00
58534;BME280;44109;52.398;7.024;2023-01-27T08:16:11;102527.63;;;4.85;100.00
58534;BME280;44109;52.398;7.024;2023-01-27T08:18:41;102527.50;;;5.00;100.00
58534;BME280;44109;52.398;7.024;2023-01-27T08:21:10;102523.88;;;5.05;100.00
58534;BME280;44109;52.398;7.024;2023-01-27T08:23:38;102483.72;;;4.46;100.00
58534;BME280;44109;52.398;7.024;2023-01-27T08:26:06;102525.38;;;4.58;100.00
58534;BME280;44109;52.398;7.024;2023-01-27T08:28:35;102533.50;;;4.73;100.00
58534;BME280;44109;52.398;7.024;2023-01-27T08:31:05;102521.63;;;4.44;100.00
58534;BME280;44109;52.398;7.024;2023-01-27T08:33:34;102532.31;;;4.84;100.00
58534;BME280;44109;52.398;7.024;2023-01-27T08:36:06;102527.91;;;4.54;100.00
58534;BME280;44109;52.398;7.024;2023-01-27T08:38:36;102540.75;;;4.93;100.00
58534;BME280;44109;52.398;7.024;2023-01-27T08:41:05;102531.47;;;5.13;100.00
58534;BME280;44109;52.398;7.024;2023-01-27T08:43:34;102535.00;;;5.19;100.00
58534;BME280;44109;52.398;7.024;2023-01-27T08:46:02;102532.44;;;5.27;100.00
58534;BME280;44109;52.398;7.024;2023-01-27T08:48:32;102533.66;;;5.16;100.00
58534;BME280;44109;52.398;7.024;2023-01-27T08:51:01;102528.44;;;5.15;100.00
58534;BME280;44109;52.398;7.024;2023-01-27T08:53:32;102539.16;;;4.87;100.00
58534;BME280;44109;52.398;7.024;2023-01-27T08:56:04;102535.25;;;4.93;100.00
58534;BME280;44109;52.398;7.024;2023-01-27T08:58:34;102529.03;;;5.12;100.00
58534;BME280;44109;52.398;7.024;2023-01-27T09:01:04;102542.22;;;4.80;100.00
58534;BME280;44109;52.398;7.024;2023-01-27T09:03:33;102537.13;;;4.69;100.00
58534;BME280;44109;52.398;7.024;2023-01-27T09:06:02;102541.31;;;4.95;100.00
58534;BME280;44109;52.398;7.024;2023-01-27T09:08:32;102555.84;;;5.25;100.00
58534;BME280;44109;52.398;7.024;2023-01-27T09:10:59;102560.34;;;4.87;100.00
58534;BME280;44109;52.398;7.024;2023-01-27T09:13:33;102568.00;;;4.90;100.00
58534;BME280;44109;52.398;7.024;2023-01-27T09:16:01;102561.16;;;5.16;100.00
58534;BME280;44109;52.398;7.024;2023-01-27T09:18:28;102562.94;;;4.68;100.00
58534;BME280;44109;52.398;7.024;2023-01-27T09:20:56;102562.03;;;4.43;100.00
58534;BME280;44109;52.398;7.024;2023-01-27T09:23:24;102566.31;;;4.94;100.00
58534;BME280;44109;52.398;7.024;2023-01-27T09:25:53;102571.41;;;4.76;100.00
58534;BME280;44109;52.398;7.024;2023-01-27T09:28:20;102575.72;;;5.17;100.00
58534;BME280;44109;52.398;7.024;2023-01-27T09:30:48;102575.50;;;5.13;100.00
58534;BME280;44109;52.398;7.024;2023-01-27T09:33:16;102575.97;;;5.20;100.00
58534;BME280;44109;52.398;7.024;2023-01-27T09:35:45;102584.56;;;5.43;100.00
58534;BME280;44109;52.398;7.024;2023-01-27T09:38:20;102585.41;;;5.91;100.00
58534;BME280;44109;52.398;7.024;2023-01-27T09:41:08;102584.34;;;6.11;100.00
58534;BME280;44109;52.398;7.024;2023-01-27T09:47:09;102581.72;;;6.01;100.00
58534;BME280;44109;52.398;7.024;2023-01-27T09:50:03;102579.00;;;6.20;100.00
58534;BME280;44109;52.398;7.024;2023-01-27T09:53:05;102583.28;;;6.07;100.00
58534;BME280;44109;52.398;7.024;2023-01-27T09:55:53;102582.72;;;6.29;100.00
58534;BME280;44109;52.398;7.024;2023-01-27T09:58:38;102586.00;;;5.64;100.00
58534;BME280;44109;52.398;7.024;2023-01-27T10:01:28;102589.44;;;5.22;100.00
58534;BME280;44109;52.398;7.024;2023-01-27T10:04:25;102583.63;;;4.94;100.00
58534;BME280;44109;52.398;7.024;2023-01-27T10:07:22;102589.06;;;5.33;100.00
58534;BME280;44109;52.398;7.024;2023-01-27T10:10:21;102589.31;;;5.61;100.00
58534;BME280;44109;52.398;7.024;2023-01-27T10:13:14;102585.50;;;5.81;100.00
58534;BME280;44109;52.398;7.024;2023-01-27T10:16:02;102588.34;;;6.00;100.00
58534;BME280;44109;52.398;7.024;2023-01-27T10:18:57;102588.94;;;5.97;100.00
58534;BME280;44109;52.398;7.024;2023-01-27T10:21:41;102590.22;;;6.04;100.00
58534;BME280;44109;52.398;7.024;2023-01-27T10:24:24;102578.00;;;5.39;100.00
58534;BME280;44109;52.398;7.024;2023-01-27T10:27:07;102585.81;;;6.03;100.00
58534;BME280;44109;52.398;7.024;2023-01-27T10:29:46;102573.78;;;6.18;100.00
58534;BME280;44109;52.398;7.024;2023-01-27T10:32:25;102582.22;;;6.27;100.00
58534;BME280;44109;52.398;7.024;2023-01-27T10:35:06;102573.47;;;6.39;100.00
58534;BME280;44109;52.398;7.024;2023-01-27T10:37:45;102582.22;;;6.46;100.00
58534;BME280;44109;52.398;7.024;2023-01-27T10:40:28;102575.03;;;6.26;97.77
58534;BME280;44109;52.398;7.024;2023-01-27T10:43:05;102577.38;;;5.95;99.01
58534;BME280;44109;52.398;7.024;2023-01-27T10:45:46;102581.69;;;6.44;100.00
58534;BME280;44109;52.398;7.024;2023-01-27T10:48:33;102575.28;;;6.29;99.43
58534;BME280;44109;52.398;7.024;2023-01-27T10:51:10;102584.34;;;6.49;100.00
58534;BME280;44109;52.398;7.024;2023-01-27T10:53:49;102580.78;;;6.29;99.05
58534;BME280;44109;52.398;7.024;2023-01-27T10:56:28;102576.25;;;6.39;97.41
58534;BME280;44109;52.398;7.024;2023-01-27T10:59:07;102559.28;;;6.31;97.36
58534;BME280;44109;52.398;7.024;2023-01-27T11:01:45;102578.75;;;6.35;97.42
58534;BME280;44109;52.398;7.024;2023-01-27T11:04:26;102584.00;;;6.37;100.00
58534;BME280;44109;52.398;7.024;2023-01-27T11:07:02;102584.84;;;6.13;93.23
58534;BME280;44109;52.398;7.024;2023-01-27T11:09:34;102586.78;;;6.13;99.56
58534;BME280;44109;52.398;7.024;2023-01-27T11:12:05;102588.88;;;6.21;94.78
58534;BME280;44109;52.398;7.024;2023-01-27T11:14:43;102575.94;;;6.40;95.12
58534;BME280;44109;52.398;7.024;2023-01-27T11:17:18;102579.22;;;6.61;94.18
58534;BME280;44109;52.398;7.024;2023-01-27T11:19:57;102583.44;;;5.97;97.33
58534;BME280;44109;52.398;7.024;2023-01-27T11:22:35;102561.34;;;6.40;97.88
58534;BME280;44109;52.398;7.024;2023-01-27T11:25:20;102577.50;;;6.65;95.45
58534;BME280;44109;52.398;7.024;2023-01-27T11:27:57;102583.72;;;6.90;97.94
58534;BME280;44109;52.398;7.024;2023-01-27T11:30:36;102571.44;;;6.82;95.53
58534;BME280;44109;52.398;7.024;2023-01-27T11:33:16;102568.19;;;6.61;97.81
58534;BME280;44109;52.398;7.024;2023-01-27T11:35:50;102542.63;;;6.55;96.52
58534;BME280;44109;52.398;7.024;2023-01-27T11:38:21;102575.03;;;6.45;97.68
58534;BME280;44109;52.398;7.024;2023-01-27T11:40:51;102563.00;;;6.41;94.69
58534;BME280;44109;52.398;7.024;2023-01-27T11:43:23;102573.47;;;6.01;96.79
58534;BME280;44109;52.398;7.024;2023-01-27T11:45:57;102569.75;;;6.29;95.59
58534;BME280;44109;52.398;7.024;2023-01-27T11:48:35;102563.81;;;6.41;95.57
58534;BME280;44109;52.398;7.024;2023-01-27T11:51:12;102566.63;;;6.55;95.98
58534;BME280;44109;52.398;7.024;2023-01-27T11:53:49;102561.19;;;6.50;94.75
58534;BME280;44109;52.398;7.024;2023-01-27T11:56:23;102561.56;;;6.24;95.94
58534;BME280;44109;52.398;7.024;2023-01-27T11:58:59;102547.84;;;6.00;97.14
58534;BME280;44109;52.398;7.024;2023-01-27T12:01:39;102552.41;;;6.48;98.96
58534;BME280;44109;52.398;7.024;2023-01-27T12:04:18;102548.16;;;6.37;98.10
58534;BME280;44109;52.398;7.024;2023-01-27T12:06:53;102544.78;;;6.58;96.66
58534;BME280;44109;52.398;7.024;2023-01-27T12:09:33;102543.44;;;5.99;94.51
58534;BME280;44109;52.398;7.024;2023-01-27T12:12:10;102539.53;;;6.24;96.70
58534;BME280;44109;52.398;7.024;2023-01-27T12:14:47;102537.22;;;6.50;96.96
58534;BME280;44109;52.398;7.024;2023-01-27T12:17:21;102532.06;;;6.76;96.78
58534;BME280;44109;52.398;7.024;2023-01-27T12:19:56;102533.59;;;6.69;94.16
58534;BME280;44109;52.398;7.024;2023-01-27T12:22:31;102533.50;;;6.74;93.24
58534;BME280;44109;52.398;7.024;2023-01-27T12:25:02;102534.59;;;6.59;92.58
58534;BME280;44109;52.398;7.024;2023-01-27T12:27:39;102534.34;;;6.74;91.24
58534;BME280;44109;52.398;7.024;2023-01-27T12:30:20;102534.84;;;6.76;97.02
58534;BME280;44109;52.398;7.024;2023-01-27T12:32:50;102532.16;;;5.77;93.67
58534;BME280;44109;52.398;7.024;2023-01-27T12:35:23;102528.50;;;6.24;96.93
58534;BME280;44109;52.398;7.024;2023-01-27T12:37:55;102519.06;;;6.63;96.77
58534;BME280;44109;52.398;7.024;2023-01-27T12:40:27;102527.78;;;6.70;92.10
58534;BME280;44109;52.398;7.024;2023-01-27T12:43:08;102530.25;;;6.85;93.66
58534;BME280;44109;52.398;7.024;2023-01-27T12:45:38;102532.16;;;6.71;92.00
58534;BME280;44109;52.398;7.024;2023-01-27T12:48:19;102533.03;;;6.85;94.32
58534;BME280;44109;52.398;7.024;2023-01-27T12:53:42;102535.72;;;6.91;93.74
58534;BME280;44109;52.398;7.024;2023-01-27T12:56:12;102538.22;;;6.73;91.18
58534;BME280;44109;52.398;7.024;2023-01-27T12:58:43;102538.13;;;6.78;92.00
58534;BME280;44109;52.398;7.024;2023-01-27T13:01:27;102541.47;;;7.08;93.64
58534;BME280;44109;52.398;7.024;2023-01-27T13:03:58;102542.84;;;7.24;94.39
58534;BME280;44109;52.398;7.024;2023-01-27T13:06:37;102515.31;;;7.05;90.06
58534;BME280;44109;52.398;7.024;2023-01-27T13:09:23;102529.84;;;6.78;89.60
58534;BME280;44109;52.398;7.024;2023-01-27T13:11:54;102544.88;;;6.34;91.56
58534;BME280;44109;52.398;7.024;2023-01-27T13:14:27;102532.22;;;5.96;91.06
58534;BME280;44109;52.398;7.024;2023-01-27T13:16:57;102507.97;;;5.26;95.28
58534;BME280;44109;52.398;7.024;2023-01-27T13:19:34;102537.97;;;6.18;96.65
58534;BME280;44109;52.398;7.024;2023-01-27T13:22:09;102526.03;;;6.23;93.79
58534;BME280;44109;52.398;7.024;2023-01-27T13:24:47;102533.41;;;6.27;94.54
58534;BME280;44109;52.398;7.024;2023-01-27T13:27:20;102537.06;;;6.42;91.96
58534;BME280;44109;52.398;7.024;2023-01-27T13:29:54;102533.28;;;5.52;92.18